createdAt,value
2016-10-02T00:01:05.305Z,17.45
2016-10-02T00:02:15.300Z,17.42
2016-10-02T00:03:25.577Z,17.45
2016-10-02T00:04:35.875Z,17.39
2016-10-02T00:05:45.862Z,17.47
2016-10-02T00:06:56.157Z,17.49
2016-10-02T00:08:06.147Z,17.4
2016-10-02T00:09:16.441Z,17.45
2016-10-02T00:10:26.447Z,17.42
2016-10-02T00:11:36.418Z,17.4
2016-10-02T00:12:46.386Z,17.36
2016-10-02T00:13:56.363Z,17.43
2016-10-02T00:15:06.346Z,17.39
2016-10-02T00:16:16.335Z,17.32
2016-10-02T00:17:26.313Z,17.39
2016-10-02T00:18:36.597Z,17.35
2016-10-02T00:19:46.296Z,17.39
2016-10-02T00:20:55.964Z,17.36
2016-10-02T00:22:06.271Z,17.39
2016-10-02T00:23:16.570Z,17.42
2016-10-02T00:24:25.944Z,17.47
2016-10-02T00:25:35.920Z,17.39
2016-10-02T00:26:46.221Z,17.35
2016-10-02T00:27:56.212Z,17.31
2016-10-02T00:29:06.509Z,17.31
2016-10-02T00:30:16.803Z,17.24
2016-10-02T00:31:26.509Z,17.2
2016-10-02T00:32:36.804Z,17.25
2016-10-02T00:33:46.808Z,17.28
2016-10-02T00:34:56.819Z,17.27
2016-10-02T00:36:07.097Z,17.17
2016-10-02T00:37:17.083Z,17.2
2016-10-02T00:38:27.070Z,17.22
2016-10-02T00:39:37.362Z,17.24
2016-10-02T00:40:47.348Z,17.2
2016-10-02T00:41:57.656Z,17.13
2016-10-02T00:43:07.950Z,17.22
2016-10-02T00:44:18.238Z,17.05
2016-10-02T00:45:27.928Z,17.12
2016-10-02T00:46:38.217Z,17.05
2016-10-02T00:47:48.509Z,17.03
2016-10-02T00:48:58.529Z,17.15
2016-10-02T00:50:08.808Z,17.15
2016-10-02T00:51:19.128Z,17.22
2016-10-02T00:52:29.118Z,17.18
2016-10-02T00:53:39.430Z,17.22
2016-10-02T00:54:49.646Z,17.15
2016-10-02T00:55:59.926Z,17.22
2016-10-02T00:57:09.912Z,17.2
2016-10-02T00:58:20.212Z,17.07
2016-10-02T00:59:30.198Z,17.06
2016-10-02T01:00:40.210Z,17.1
2016-10-02T01:01:49.868Z,17.09
2016-10-02T01:03:00.194Z,17.07
2016-10-02T01:04:10.491Z,17.13
2016-10-02T01:05:20.768Z,17.09
2016-10-02T01:06:30.755Z,17.24
2016-10-02T01:07:41.041Z,17.2
2016-10-02T01:08:51.324Z,17.24
2016-10-02T01:10:01.616Z,17.22
2016-10-02T01:11:11.601Z,17.32
2016-10-02T01:12:21.275Z,17.31
2016-10-02T01:13:31.293Z,17.25
2016-10-02T01:14:41.583Z,17.24
2016-10-02T01:15:51.877Z,17.31
2016-10-02T01:17:01.846Z,17.35
2016-10-02T01:18:11.515Z,17.36
2016-10-02T01:19:21.488Z,17.31
2016-10-02T01:25:50.345Z,17.28
2016-10-02T01:27:00.652Z,17.31
2016-10-02T01:28:10.314Z,17.31
2016-10-02T01:29:20.302Z,17.31
2016-10-02T01:30:30.607Z,17.32
2016-10-02T01:31:40.889Z,17.28
2016-10-02T01:32:50.876Z,17.36
2016-10-02T01:34:01.189Z,17.28
2016-10-02T01:35:11.174Z,17.2
2016-10-02T01:36:21.505Z,17.28
2016-10-02T01:37:31.783Z,17.3
2016-10-02T01:38:42.094Z,17.36
2016-10-02T01:39:52.101Z,17.32
2016-10-02T01:41:02.087Z,17.35
2016-10-02T01:42:12.065Z,17.47
2016-10-02T01:43:22.352Z,17.42
2016-10-02T01:44:32.322Z,17.45
2016-10-02T01:45:42.304Z,17.52
2016-10-02T01:46:52.590Z,17.52
2016-10-02T01:48:02.261Z,17.57
2016-10-02T01:49:12.557Z,17.52
2016-10-02T01:50:22.536Z,17.52
2016-10-02T01:51:32.523Z,17.55
2016-10-02T01:52:42.510Z,17.46
2016-10-02T01:53:52.201Z,17.42
2016-10-02T01:55:02.203Z,17.45
2016-10-02T01:56:12.489Z,17.52
2016-10-02T01:57:22.474Z,17.46
2016-10-02T01:58:32.763Z,17.5
2016-10-02T01:59:43.045Z,17.55
2016-10-02T02:00:52.401Z,17.54
2016-10-02T02:02:02.372Z,17.54
2016-10-02T02:03:12.661Z,17.54
2016-10-02T02:04:22.961Z,17.49
2016-10-02T02:05:32.943Z,17.52
2016-10-02T02:06:43.230Z,17.49
2016-10-02T02:07:53.197Z,17.6
2016-10-02T02:09:03.167Z,17.62
2016-10-02T02:10:13.466Z,17.62
2016-10-02T02:11:23.757Z,17.63
2016-10-02T02:12:34.057Z,17.57
2016-10-02T02:13:44.346Z,17.63
2016-10-02T02:14:54.334Z,17.49
2016-10-02T02:16:04.624Z,17.55
2016-10-02T02:17:14.918Z,17.49
2016-10-02T02:18:24.899Z,17.58
2016-10-02T02:19:34.565Z,17.71
2016-10-02T02:20:44.851Z,17.66
2016-10-02T02:21:55.142Z,17.71
2016-10-02T02:23:05.444Z,17.71
2016-10-02T02:24:15.423Z,17.66
2016-10-02T02:25:25.733Z,17.71
2016-10-02T02:26:36.014Z,17.73
2016-10-02T02:27:46.307Z,17.73
2016-10-02T02:28:56.594Z,17.66
2016-10-02T02:30:06.610Z,17.71
2016-10-02T02:31:16.601Z,17.68
2016-10-02T02:32:26.568Z,17.63
2016-10-02T02:33:36.865Z,17.55
2016-10-02T02:34:46.843Z,17.47
2016-10-02T02:35:57.125Z,17.52
2016-10-02T02:37:06.810Z,17.54
2016-10-02T02:38:16.491Z,17.54
2016-10-02T02:39:26.167Z,17.52
2016-10-02T02:40:36.145Z,17.52
2016-10-02T02:41:45.812Z,17.54
2016-10-02T02:42:55.793Z,17.52
2016-10-02T02:44:05.781Z,17.49
2016-10-02T02:45:15.442Z,17.63
2016-10-02T02:46:25.417Z,17.65
2016-10-02T02:47:35.386Z,17.66
2016-10-02T02:48:45.062Z,17.63
2016-10-02T02:49:55.335Z,17.66
2016-10-02T02:51:05.626Z,17.74
2016-10-02T02:52:15.914Z,17.73
2016-10-02T02:53:25.903Z,17.65
2016-10-02T02:54:36.211Z,17.63
2016-10-02T02:55:46.501Z,17.73
2016-10-02T02:56:56.803Z,17.66
2016-10-02T02:58:06.481Z,17.69
2016-10-02T02:59:16.473Z,17.73
2016-10-02T03:00:26.759Z,17.69
2016-10-02T03:32:30.014Z,14.36
2016-10-02T03:33:40.314Z,14.27
2016-10-02T03:34:50.581Z,14.38
2016-10-02T03:36:00.561Z,14.41
2016-10-02T03:37:10.535Z,14.41
2016-10-02T03:38:20.837Z,14.48
2016-10-02T03:39:30.809Z,14.51
2016-10-02T03:40:41.123Z,14.7
2016-10-02T03:41:51.119Z,14.87
2016-10-02T03:43:01.095Z,14.97
2016-10-02T03:44:11.373Z,15.13
2016-10-02T03:45:21.668Z,15.33
2016-10-02T03:46:31.969Z,15.45
2016-10-02T03:47:42.263Z,15.53
2016-10-02T03:48:52.237Z,15.7
2016-10-02T03:50:01.908Z,15.75
2016-10-02T03:51:12.195Z,15.86
2016-10-02T03:52:21.864Z,15.96
2016-10-02T03:53:32.157Z,16.07
2016-10-02T03:54:41.544Z,16.21
2016-10-02T03:55:51.526Z,16.36
2016-10-02T03:57:01.803Z,16.4
2016-10-02T03:58:12.081Z,16.42
2016-10-02T03:59:21.751Z,16.51
2016-10-02T04:00:32.044Z,16.55
2016-10-02T04:01:42.310Z,16.63
2016-10-02T04:02:52.621Z,16.73
2016-10-02T04:04:02.911Z,16.7
2016-10-02T04:05:13.215Z,16.82
2016-10-02T04:06:23.196Z,16.88
2016-10-02T04:07:33.174Z,17
2016-10-02T04:08:43.154Z,17
2016-10-02T04:09:52.821Z,17.06
2016-10-02T04:11:02.197Z,17.09
2016-10-02T04:12:12.207Z,17.1
2016-10-02T04:13:21.887Z,17.13
2016-10-02T04:14:31.878Z,17.07
2016-10-02T04:15:41.863Z,17.1
2016-10-02T04:16:52.159Z,17.2
2016-10-02T04:18:02.449Z,17.18
2016-10-02T04:19:12.735Z,17.2
2016-10-02T04:20:22.723Z,17.17
2016-10-02T04:21:33.010Z,17.12
2016-10-02T04:22:42.981Z,17.1
2016-10-02T04:23:53.274Z,17.05
2016-10-02T04:25:03.261Z,17.06
2016-10-02T04:26:12.921Z,17.05
2016-10-02T04:27:22.913Z,17.06
2016-10-02T04:28:32.275Z,17.1
2016-10-02T04:29:42.566Z,17.17
2016-10-02T04:30:52.254Z,17.13
2016-10-02T04:32:02.248Z,17.09
2016-10-02T04:33:12.228Z,17.15
2016-10-02T04:34:21.911Z,17.24
2016-10-02T04:35:31.884Z,17.13
2016-10-02T04:36:42.182Z,17.17
2016-10-02T04:37:52.157Z,17.1
2016-10-02T04:39:02.130Z,17.02
2016-10-02T04:40:12.425Z,17.06
2016-10-02T04:41:22.709Z,17.1
2016-10-02T04:42:32.694Z,17.05
2016-10-02T04:43:41.767Z,17.1
2016-10-02T04:44:51.744Z,17.09
2016-10-02T04:46:01.730Z,17.1
2016-10-02T04:47:11.706Z,17.09
2016-10-02T04:48:21.379Z,17.1
2016-10-02T04:49:31.368Z,17.1
2016-10-02T04:50:41.354Z,17.05
2016-10-02T04:51:51.645Z,16.9
2016-10-02T04:53:01.950Z,17.05
2016-10-02T04:54:12.259Z,16.95
2016-10-02T04:55:21.932Z,17.03
2016-10-02T04:56:31.910Z,16.95
2016-10-02T04:57:42.206Z,17.06
2016-10-02T04:58:51.885Z,17.09
2016-10-02T05:00:02.170Z,17.07
2016-10-02T05:01:12.152Z,17.05
2016-10-02T05:02:22.128Z,17.06
2016-10-02T05:03:31.817Z,17.15
2016-10-02T05:04:41.808Z,17.06
2016-10-02T05:05:52.094Z,17.17
2016-10-02T05:07:02.400Z,17.25
2016-10-02T05:08:12.390Z,17.27
2016-10-02T05:09:22.695Z,17.28
2016-10-02T05:10:32.671Z,17.3
2016-10-02T05:11:42.957Z,17.3
2016-10-02T05:12:52.932Z,17.32
2016-10-02T05:14:02.920Z,17.32
2016-10-02T05:15:12.927Z,17.36
2016-10-02T05:16:22.901Z,17.39
2016-10-02T05:17:33.186Z,17.35
2016-10-02T05:18:42.538Z,17.39
2016-10-02T05:19:52.824Z,17.46
2016-10-02T05:21:02.511Z,17.49
2016-10-02T05:22:12.803Z,17.46
2016-10-02T05:23:23.099Z,17.55
2016-10-02T05:24:33.075Z,17.52
2016-10-02T05:25:43.404Z,17.66
2016-10-02T05:26:53.702Z,17.74
2016-10-02T05:28:03.679Z,17.74
2016-10-02T05:29:13.661Z,17.77
2016-10-02T05:30:23.943Z,17.94
2016-10-02T05:31:33.311Z,17.94
2016-10-02T05:32:43.295Z,18.01
2016-10-02T05:33:52.968Z,18.02
2016-10-02T05:35:03.264Z,18.21
2016-10-02T05:36:12.657Z,18.13
2016-10-02T05:37:22.961Z,18.17
2016-10-02T05:38:32.977Z,18.32
2016-10-02T05:39:42.975Z,18.31
2016-10-02T05:40:52.961Z,18.26
2016-10-02T05:42:02.968Z,18.35
2016-10-02T05:43:13.296Z,18.34
2016-10-02T05:44:23.278Z,18.31
2016-10-02T05:45:33.583Z,18.32
2016-10-02T05:46:43.875Z,18.34
2016-10-02T05:47:54.164Z,18.34
2016-10-02T05:49:04.459Z,18.32
2016-10-02T05:50:14.426Z,18.24
2016-10-02T05:51:24.097Z,18.32
2016-10-02T05:52:34.079Z,18.29
2016-10-02T05:53:44.074Z,18.27
2016-10-02T05:54:54.061Z,18.34
2016-10-02T05:56:04.358Z,18.29
2016-10-02T05:57:14.669Z,18.34
2016-10-02T05:58:24.651Z,18.36
2016-10-02T05:59:34.633Z,18.49
2016-10-02T06:00:44.941Z,18.5
2016-10-02T06:01:55.243Z,18.45
2016-10-02T06:03:05.247Z,18.51
2016-10-02T06:04:14.599Z,18.6
2016-10-02T06:05:24.587Z,18.68
2016-10-02T06:06:33.957Z,18.68
2016-10-02T06:07:43.950Z,18.65
2016-10-02T06:08:53.933Z,18.71
2016-10-02T06:10:03.603Z,18.78
2016-10-02T06:11:13.895Z,18.78
2016-10-02T06:12:24.191Z,18.79
2016-10-02T06:13:33.869Z,18.78
2016-10-02T06:14:44.169Z,18.84
2016-10-02T06:15:54.131Z,18.89
2016-10-02T06:17:04.123Z,18.89
2016-10-02T06:18:14.020Z,18.93
2016-10-02T06:19:24.311Z,18.96
2016-10-02T06:20:34.304Z,19.06
2016-10-02T06:21:44.595Z,19
2016-10-02T06:22:54.551Z,19.07
2016-10-02T06:24:04.249Z,19.1
2016-10-02T06:25:14.234Z,19.12
2016-10-02T06:26:24.217Z,19.13
2016-10-02T06:27:34.193Z,19.12
2016-10-02T06:28:44.192Z,19.15
2016-10-02T06:29:54.477Z,19.12
2016-10-02T06:31:04.461Z,19.09
2016-10-02T06:32:14.437Z,19.12
2016-10-02T06:33:24.404Z,19.19
2016-10-02T06:34:34.429Z,19.23
2016-10-02T06:35:44.711Z,19.32
2016-10-02T06:36:54.394Z,19.4
2016-10-02T06:38:04.706Z,19.47
2016-10-02T06:39:14.687Z,19.52
2016-10-02T06:40:24.970Z,19.56
2016-10-02T06:41:35.262Z,19.56
2016-10-02T06:42:45.240Z,19.56
2016-10-02T06:43:55.213Z,19.7
2016-10-02T06:45:05.229Z,19.8
2016-10-02T06:46:14.896Z,19.68
2016-10-02T06:47:24.873Z,19.86
2016-10-02T06:48:34.865Z,19.95
2016-10-02T06:49:45.179Z,19.98
2016-10-02T06:50:55.170Z,20.11
2016-10-02T06:52:05.468Z,20.07
2016-10-02T06:53:15.462Z,20.11
2016-10-02T06:54:25.770Z,20.08
2016-10-02T06:55:35.455Z,20.2
2016-10-02T06:56:45.437Z,20.34
2016-10-02T06:57:55.414Z,20.37
2016-10-02T06:59:05.712Z,20.35
2016-10-02T07:00:15.705Z,20.42
2016-10-02T07:01:25.706Z,20.42
2016-10-02T07:02:35.714Z,20.54
2016-10-02T07:03:45.717Z,20.49
2016-10-02T07:04:55.700Z,20.61
2016-10-02T07:06:05.362Z,20.74
2016-10-02T07:07:15.038Z,20.75
2016-10-02T07:08:25.334Z,20.85
2016-10-02T07:09:35.311Z,20.96
2016-10-02T07:10:45.614Z,21.04
2016-10-02T07:11:55.910Z,21.21
2016-10-02T07:13:05.903Z,21.16
2016-10-02T07:14:15.907Z,21.31
2016-10-02T07:15:25.892Z,21.48
2016-10-02T07:16:35.868Z,21.55
2016-10-02T07:17:45.869Z,21.55
2016-10-02T07:18:56.158Z,21.67
2016-10-02T07:20:06.169Z,21.74
2016-10-02T07:21:16.477Z,21.86
2016-10-02T07:22:26.768Z,21.97
2016-10-02T07:23:36.751Z,22.07
2016-10-02T07:24:47.057Z,22.05
2016-10-02T07:25:57.058Z,22.14
2016-10-02T07:27:07.362Z,22.22
2016-10-02T07:28:17.646Z,22.22
2016-10-02T07:29:27.634Z,22.27
2016-10-02T07:30:37.924Z,22.27
2016-10-02T07:31:48.215Z,22.3
2016-10-02T07:32:58.511Z,22.2
2016-10-02T07:34:08.809Z,22.27
2016-10-02T07:35:19.101Z,22.29
2016-10-02T07:36:28.479Z,22.26
2016-10-02T07:37:38.785Z,22.29
2016-10-02T07:38:48.794Z,22.23
2016-10-02T07:39:58.793Z,22.27
2016-10-02T07:41:09.099Z,22.34
2016-10-02T07:42:18.781Z,22.42
2016-10-02T07:43:28.773Z,22.41
2016-10-02T07:44:38.767Z,22.46
2016-10-02T07:45:48.441Z,22.57
2016-10-02T07:46:58.723Z,22.54
2016-10-02T07:48:08.411Z,22.63
2016-10-02T07:49:18.116Z,22.75
2016-10-02T07:50:28.109Z,22.66
2016-10-02T07:51:38.446Z,22.71
2016-10-02T07:52:48.766Z,22.69
2016-10-02T07:53:58.751Z,22.75
2016-10-02T07:55:08.732Z,22.76
2016-10-02T07:56:18.723Z,22.75
2016-10-02T07:57:28.707Z,22.85
2016-10-02T07:58:38.727Z,22.81
2016-10-02T07:59:48.443Z,22.88
2016-10-02T08:00:58.145Z,22.85
2016-10-02T08:02:08.446Z,22.86
2016-10-02T08:03:18.447Z,23
2016-10-02T08:04:28.111Z,22.96
2016-10-02T08:05:38.430Z,23.07
2016-10-02T08:06:48.403Z,23
2016-10-02T08:07:58.705Z,23.09
2016-10-02T08:09:09.009Z,23.06
2016-10-02T08:10:18.993Z,23.15
2016-10-02T08:11:29.297Z,23.09
2016-10-02T08:12:39.283Z,23.14
2016-10-02T08:13:49.638Z,23.09
2016-10-02T08:14:59.321Z,23.16
2016-10-02T08:16:09.641Z,23.16
2016-10-02T08:17:19.328Z,23.12
2016-10-02T08:18:29.624Z,23.09
2016-10-02T08:19:39.918Z,23.12
2016-10-02T08:20:49.900Z,23.15
2016-10-02T08:21:59.581Z,23.12
2016-10-02T08:23:09.890Z,23.14
2016-10-02T08:24:19.884Z,23.18
2016-10-02T08:25:29.884Z,23.14
2016-10-02T08:26:40.181Z,23.15
2016-10-02T08:27:50.470Z,23.15
2016-10-02T08:29:00.460Z,23.14
2016-10-02T08:30:10.538Z,23.15
2016-10-02T08:31:20.828Z,23.12
2016-10-02T08:32:31.125Z,23.16
2016-10-02T08:33:41.125Z,23.15
2016-10-02T08:34:51.432Z,23.15
2016-10-02T08:36:01.726Z,23.1
2016-10-02T08:37:12.018Z,23.07
2016-10-02T08:38:22.331Z,23.15
2016-10-02T08:39:32.347Z,23.12
2016-10-02T08:40:42.657Z,23.12
2016-10-02T08:41:52.635Z,23.18
2016-10-02T08:43:02.926Z,23.18
2016-10-02T08:44:12.312Z,23.15
2016-10-02T08:45:22.626Z,23.15
2016-10-02T08:46:32.911Z,23.14
2016-10-02T08:47:42.907Z,23.18
2016-10-02T08:48:52.904Z,23.12
2016-10-02T08:50:02.927Z,23.16
2016-10-02T08:51:13.238Z,23.14
2016-10-02T08:52:23.536Z,23.16
2016-10-02T08:53:33.539Z,23.15
2016-10-02T08:54:43.819Z,23.24
2016-10-02T08:55:53.185Z,23.25
2016-10-02T08:57:03.178Z,23.32
2016-10-02T08:58:13.711Z,23.41
2016-10-02T08:59:23.720Z,23.45
2016-10-02T09:00:34.042Z,23.48
2016-10-02T09:01:43.730Z,23.62
2016-10-02T09:02:54.050Z,23.59
2016-10-02T09:04:04.074Z,23.64
2016-10-02T09:05:14.391Z,23.82
2016-10-02T09:06:24.683Z,23.89
2016-10-02T09:07:34.668Z,23.96
2016-10-02T09:08:44.882Z,24
2016-10-02T09:09:55.159Z,24.08
2016-10-02T09:11:05.138Z,24.02
2016-10-02T09:12:15.125Z,24.18
2016-10-02T09:13:25.654Z,24.17
2016-10-02T09:14:35.973Z,24.19
2016-10-02T09:15:45.970Z,24.22
2016-10-02T09:16:56.300Z,24.18
2016-10-02T09:18:06.287Z,24.18
2016-10-02T09:19:16.596Z,24.29
2016-10-02T09:20:26.906Z,24.3
2016-10-02T09:21:36.913Z,24.3
2016-10-02T09:22:46.914Z,24.27
2016-10-02T09:23:57.212Z,24.24
2016-10-02T09:25:07.505Z,24.24
2016-10-02T09:26:17.809Z,24.29
2016-10-02T09:27:28.118Z,24.21
2016-10-02T09:28:38.426Z,24.21
2016-10-02T09:29:48.410Z,24.18
2016-10-02T09:30:58.420Z,24.18
2016-10-02T09:32:08.408Z,24.21
2016-10-02T09:33:18.726Z,24.18
2016-10-02T09:34:28.426Z,24.07
2016-10-02T09:35:38.422Z,24.09
2016-10-02T09:36:48.401Z,24.03
2016-10-02T09:37:58.091Z,24
2016-10-02T09:39:07.717Z,23.99
2016-10-02T09:40:19.718Z,23.96
2016-10-02T09:41:29.711Z,23.87
2016-10-02T09:42:40.009Z,23.82
2016-10-02T09:43:49.708Z,23.77
2016-10-02T09:45:00.010Z,23.77
2016-10-02T09:46:10.324Z,23.67
2016-10-02T09:47:20.324Z,23.62
2016-10-02T09:48:30.306Z,23.55
2016-10-02T09:49:40.288Z,23.56
2016-10-02T09:50:50.615Z,23.55
2016-10-02T09:52:00.603Z,23.5
2016-10-02T09:53:10.939Z,23.44
2016-10-02T09:54:20.961Z,23.47
2016-10-02T09:55:30.656Z,23.35
2016-10-02T09:56:40.993Z,23.41
2016-10-02T09:57:50.975Z,23.29
2016-10-02T09:59:01.277Z,23.19
2016-10-02T10:00:11.278Z,23.28
2016-10-02T10:01:21.309Z,23.18
2016-10-02T10:02:31.328Z,23.25
2016-10-02T10:03:41.639Z,23.29
2016-10-02T10:04:51.945Z,23.35
2016-10-02T10:06:02.261Z,23.24
2016-10-02T10:07:12.260Z,23.22
2016-10-02T10:08:21.933Z,23.19
2016-10-02T10:09:31.925Z,23.18
2016-10-02T10:10:41.927Z,23.15
2016-10-02T10:11:51.898Z,23.19
2016-10-02T10:13:01.885Z,23.09
2016-10-02T10:14:12.181Z,23.06
2016-10-02T10:15:22.501Z,23.04
2016-10-02T10:16:32.802Z,22.91
2016-10-02T10:17:43.092Z,22.91
2016-10-02T10:18:53.375Z,22.79
2016-10-02T10:20:03.051Z,22.63
2016-10-02T10:21:13.046Z,22.61
2016-10-02T10:22:23.030Z,22.67
2016-10-02T10:23:33.341Z,22.66
2016-10-02T10:24:43.663Z,22.61
2016-10-02T10:25:53.029Z,22.57
2016-10-02T10:27:03.016Z,22.61
2016-10-02T10:28:13.006Z,22.6
2016-10-02T10:29:22.709Z,22.44
2016-10-02T10:30:32.712Z,22.23
2016-10-02T10:31:42.702Z,22.14
2016-10-02T10:32:53.016Z,21.97
2016-10-02T10:34:02.718Z,21.77
2016-10-02T10:35:12.714Z,21.67
2016-10-02T10:36:22.724Z,21.51
2016-10-02T10:37:32.731Z,21.38
2016-10-02T10:38:42.731Z,21.33
2016-10-02T10:39:53.041Z,21.21
2016-10-02T10:41:03.354Z,21.16
2016-10-02T10:42:13.658Z,21.15
2016-10-02T10:43:23.970Z,21.13
2016-10-02T10:44:33.999Z,21.12
2016-10-02T10:45:44.223Z,21
2016-10-02T10:46:53.895Z,21.08
2016-10-02T10:48:04.207Z,21.09
2016-10-02T10:49:13.889Z,21.09
2016-10-02T10:50:24.210Z,21.04
2016-10-02T10:51:33.918Z,21.22
2016-10-02T10:52:43.927Z,21.16
2016-10-02T10:53:53.607Z,21.23
2016-10-02T10:55:03.613Z,21.4
2016-10-02T10:56:13.913Z,21.52
2016-10-02T10:57:23.896Z,21.55
2016-10-02T10:58:33.888Z,21.61
2016-10-02T10:59:44.211Z,21.71
2016-10-02T11:00:54.497Z,21.96
2016-10-02T11:02:03.577Z,21.94
2016-10-02T11:03:13.278Z,22
2016-10-02T11:04:23.612Z,22.15
2016-10-02T11:05:33.296Z,22.33
2016-10-02T11:06:43.314Z,22.31
2016-10-02T11:07:53.607Z,22.49
2016-10-02T11:09:03.892Z,22.51
2016-10-02T11:10:13.866Z,22.61
2016-10-02T11:11:23.536Z,22.67
2016-10-02T11:12:33.818Z,22.85
2016-10-02T11:13:44.125Z,22.88
2016-10-02T11:14:54.107Z,22.92
2016-10-02T11:16:03.814Z,22.91
2016-10-02T11:17:13.817Z,23.03
2016-10-02T11:18:23.810Z,23.18
2016-10-02T11:19:34.092Z,23.26
2016-10-02T11:20:44.066Z,23.37
2016-10-02T11:21:54.373Z,23.56
2016-10-02T11:23:04.363Z,23.52
2016-10-02T11:24:14.665Z,23.62
2016-10-02T11:25:24.951Z,23.72
2016-10-02T11:26:34.959Z,23.71
2016-10-02T11:27:45.275Z,23.79
2016-10-02T11:28:55.281Z,23.87
2016-10-02T11:30:05.604Z,23.79
2016-10-02T11:31:15.598Z,23.9
2016-10-02T11:32:25.923Z,23.96
2016-10-02T11:33:35.934Z,24.09
2016-10-02T11:34:45.925Z,24.07
2016-10-02T11:35:55.629Z,24.09
2016-10-02T11:37:05.315Z,24.14
2016-10-02T11:38:15.657Z,24.14
2016-10-02T11:39:25.413Z,24.17
2016-10-02T11:40:35.734Z,24.14
2016-10-02T11:41:45.729Z,24.12
2016-10-02T11:42:55.722Z,24.33
2016-10-02T11:44:05.720Z,24.33
2016-10-02T11:45:15.719Z,24.45
2016-10-02T11:46:25.714Z,24.48
2016-10-02T11:47:35.087Z,24.49
2016-10-02T11:48:45.090Z,24.67
2016-10-02T11:49:55.389Z,24.7
2016-10-02T11:51:05.689Z,24.82
2016-10-02T11:52:15.701Z,24.78
2016-10-02T11:53:25.090Z,24.85
2016-10-02T11:54:35.084Z,24.75
2016-10-02T11:55:45.405Z,24.8
2016-10-02T11:56:55.082Z,24.8
2016-10-02T11:58:04.776Z,24.86
2016-10-02T11:59:14.796Z,24.89
2016-10-02T12:00:24.813Z,24.92
2016-10-02T12:01:35.130Z,24.94
2016-10-02T12:02:45.443Z,24.96
2016-10-02T12:03:55.840Z,25
2016-10-02T12:05:06.168Z,25.02
2016-10-02T12:06:16.463Z,24.89
2016-10-02T12:07:26.478Z,24.89
2016-10-02T12:08:36.469Z,24.78
2016-10-02T12:09:46.462Z,24.77
2016-10-02T12:10:56.157Z,24.77
2016-10-02T12:12:06.474Z,24.77
2016-10-02T12:13:16.794Z,24.77
2016-10-02T12:14:26.478Z,24.74
2016-10-02T12:15:36.483Z,24.82
2016-10-02T12:16:46.604Z,24.82
2016-10-02T12:17:56.289Z,24.67
2016-10-02T12:19:06.604Z,24.69
2016-10-02T12:20:16.908Z,24.7
2016-10-02T12:21:27.201Z,24.58
2016-10-02T12:22:37.503Z,24.51
2016-10-02T12:23:47.824Z,24.45
2016-10-02T12:24:58.157Z,24.48
2016-10-02T12:26:08.136Z,24.48
2016-10-02T12:27:17.515Z,24.56
2016-10-02T12:28:27.827Z,24.54
2016-10-02T12:29:38.136Z,24.56
2016-10-02T12:30:48.446Z,24.49
2016-10-02T12:31:58.433Z,24.56
2016-10-02T12:33:08.733Z,24.54
2016-10-02T12:34:18.408Z,24.48
2016-10-02T12:35:28.414Z,24.45
2016-10-02T12:36:38.717Z,24.44
2016-10-02T12:37:48.704Z,24.4
2016-10-02T12:38:58.997Z,24.3
2016-10-02T12:40:09.317Z,24.46
2016-10-02T12:41:19.310Z,24.44
2016-10-02T12:42:29.321Z,24.39
2016-10-02T12:43:39.018Z,24.33
2016-10-02T12:44:49.331Z,24.32
2016-10-02T12:45:59.311Z,24.32
2016-10-02T12:47:09.320Z,24.29
2016-10-02T12:48:19.625Z,24.17
2016-10-02T12:49:29.937Z,24.18
2016-10-02T12:50:39.919Z,24
2016-10-02T12:51:49.605Z,23.99
2016-10-02T12:52:59.312Z,23.99
2016-10-02T12:54:09.618Z,23.89
2016-10-02T12:55:19.914Z,23.85
2016-10-02T12:56:29.923Z,23.84
2016-10-02T12:57:40.219Z,23.75
2016-10-02T12:58:50.512Z,23.71
2016-10-02T13:00:00.542Z,23.6
2016-10-02T13:01:10.841Z,23.52
2016-10-02T13:02:20.838Z,23.42
2016-10-02T13:03:30.531Z,23.38
2016-10-02T13:04:40.505Z,23.25
2016-10-02T13:05:50.689Z,23.18
2016-10-02T13:07:01.167Z,23.07
2016-10-02T13:08:11.491Z,23.03
2016-10-02T13:09:21.807Z,23.03
2016-10-02T13:10:32.122Z,23
2016-10-02T13:11:42.422Z,22.96
2016-10-02T13:12:52.741Z,22.91
2016-10-02T13:14:03.069Z,22.89
2016-10-02T13:15:13.066Z,22.81
2016-10-02T13:16:23.061Z,22.79
2016-10-02T13:17:33.374Z,22.82
2016-10-02T13:18:43.686Z,22.81
2016-10-02T13:19:54.024Z,22.71
2016-10-02T13:21:04.325Z,22.7
2016-10-02T13:22:14.631Z,22.66
2016-10-02T13:23:24.939Z,22.6
2016-10-02T13:24:34.355Z,22.52
2016-10-02T13:25:44.336Z,22.49
2016-10-02T13:26:54.353Z,22.51
2016-10-02T13:28:04.345Z,22.52
2016-10-02T13:29:14.648Z,22.54
2016-10-02T13:30:24.947Z,22.42
2016-10-02T13:31:35.242Z,22.45
2016-10-02T13:32:45.532Z,22.48
2016-10-02T13:33:55.828Z,22.41
2016-10-02T13:35:05.512Z,22.49
2016-10-02T13:36:15.831Z,22.45
2016-10-02T13:37:25.823Z,22.44
2016-10-02T13:38:36.124Z,22.39
2016-10-02T13:39:45.901Z,22.51
2016-10-02T13:40:55.910Z,22.51
2016-10-02T13:42:06.206Z,22.45
2016-10-02T13:43:15.881Z,22.45
2016-10-02T13:44:26.213Z,22.44
2016-10-02T13:45:36.211Z,22.45
2016-10-02T13:46:46.202Z,22.39
2016-10-02T13:47:55.880Z,22.33
2016-10-02T13:49:05.878Z,22.38
2016-10-02T13:50:16.166Z,22.23
2016-10-02T13:51:26.167Z,22.26
2016-10-02T13:52:36.462Z,22.2
2016-10-02T13:53:46.144Z,22.3
2016-10-02T13:54:56.444Z,22.22
2016-10-02T13:56:06.773Z,22.12
2016-10-02T13:57:16.767Z,22.05
2016-10-02T13:58:26.769Z,22
2016-10-02T13:59:37.061Z,21.99
2016-10-02T14:00:47.379Z,21.96
2016-10-02T14:01:57.374Z,21.89
2016-10-02T14:03:07.368Z,21.86
2016-10-02T14:04:17.055Z,21.83
2016-10-02T14:05:27.036Z,21.83
2016-10-02T14:06:37.347Z,21.92
2016-10-02T14:07:47.349Z,21.82
2016-10-02T14:08:57.046Z,21.8
2016-10-02T14:10:07.374Z,21.86
2016-10-02T14:11:17.071Z,21.78
2016-10-02T14:12:27.364Z,21.76
2016-10-02T14:13:37.026Z,21.71
2016-10-02T14:14:47.019Z,21.66
2016-10-02T14:15:57.028Z,21.73
2016-10-02T14:17:06.718Z,21.71
2016-10-02T14:18:16.700Z,21.78
2016-10-02T14:19:27.018Z,21.77
2016-10-02T14:20:37.219Z,21.74
2016-10-02T14:21:47.245Z,21.78
2016-10-02T14:22:57.548Z,21.71
2016-10-02T14:24:07.543Z,21.76
2016-10-02T14:25:17.836Z,21.71
2016-10-02T14:26:28.131Z,21.74
2016-10-02T14:27:38.134Z,21.68
2016-10-02T14:28:48.121Z,21.83
2016-10-02T14:29:58.414Z,21.76
2016-10-02T14:31:08.741Z,21.76
2016-10-02T14:32:19.046Z,21.71
2016-10-02T14:33:29.037Z,21.76
2016-10-02T14:34:39.028Z,21.74
2016-10-02T14:35:49.036Z,21.76
2016-10-02T14:36:59.048Z,21.71
2016-10-02T14:38:09.048Z,21.68
2016-10-02T14:39:19.346Z,21.76
2016-10-02T14:40:29.653Z,21.85
2016-10-02T14:41:40.007Z,21.76
2016-10-02T14:42:49.972Z,21.78
2016-10-02T14:44:00.299Z,21.7
2016-10-02T14:45:10.294Z,21.66
2016-10-02T14:46:20.601Z,21.58
2016-10-02T14:47:30.268Z,21.62
2016-10-02T14:48:40.568Z,21.59
2016-10-02T14:49:50.272Z,21.59
2016-10-02T14:50:59.976Z,21.64
2016-10-02T14:52:10.517Z,21.73
2016-10-02T14:53:20.499Z,21.83
2016-10-02T14:54:30.185Z,21.77
2016-10-02T14:55:40.486Z,21.73
2016-10-02T14:56:50.472Z,21.71
2016-10-02T14:58:00.777Z,21.73
2016-10-02T14:59:10.777Z,21.7
2016-10-02T15:00:20.772Z,21.68
2016-10-02T15:01:31.092Z,21.61
2016-10-02T15:02:41.087Z,21.59
2016-10-02T15:03:51.407Z,21.64
2016-10-02T15:05:01.414Z,21.59
2016-10-02T15:06:11.401Z,21.59
2016-10-02T15:07:21.387Z,21.58
2016-10-02T15:08:31.687Z,21.49
2016-10-02T15:09:41.383Z,21.49
2016-10-02T15:10:51.064Z,21.52
2016-10-02T15:12:01.062Z,21.46
2016-10-02T15:13:11.361Z,21.45
2016-10-02T15:14:21.046Z,21.38
2016-10-02T15:15:30.735Z,21.36
2016-10-02T15:16:40.743Z,21.37
2016-10-02T15:17:51.068Z,21.41
2016-10-02T15:19:01.057Z,21.43
2016-10-02T15:20:11.399Z,21.38
2016-10-02T15:21:21.958Z,21.41
2016-10-02T15:22:32.269Z,21.38
2016-10-02T15:23:42.580Z,21.33
2016-10-02T15:24:52.949Z,21.22
2016-10-02T15:26:03.252Z,21.19
2016-10-02T15:27:13.273Z,21.19
2016-10-02T15:28:23.287Z,21.15
2016-10-02T15:29:33.598Z,21.21
2016-10-02T15:30:43.287Z,21.21
2016-10-02T15:31:53.297Z,21.21
2016-10-02T15:33:03.602Z,21.21
2016-10-02T15:34:13.606Z,21.18
2016-10-02T15:35:23.902Z,21.21
2016-10-02T15:36:34.199Z,21.09
2016-10-02T15:37:43.596Z,21.08
2016-10-02T15:38:53.285Z,21.15
2016-10-02T15:40:03.291Z,20.98
2016-10-02T15:41:13.290Z,20.94
2016-10-02T15:42:23.293Z,20.91